Time;durP1;ratioP1;P1;durP2;ratioP2;P2;SDS_P1;SDS_P2;PMS_P1;PMS_P2;Temp;Humidity;BMP_temperature;BMP_pressure;BME280_temperature;BME280_humidity;BME280_pressure;Samples;Min_cycle;Max_cycle;Signal;HPM_P1;HPM_P2
2021/12/26 00:01:41;;;;;;;;;;;21.90;47.10;;;;;;5097851;28;19923;-50
2021/12/26 00:04:13;;;;;;;;;;;21.80;47.00;;;;;;5115505;28;20456;-56
2021/12/26 00:06:42;;;;;;;;;;;21.80;46.90;;;;;;5116224;28;19923;-53
2021/12/26 00:09:09;;;;;;;;;;;21.80;47.20;;;;;;5116334;28;19976;-58
2021/12/26 00:11:36;;;;;;;;;;;21.80;47.00;;;;;;5115404;28;19927;-53
2021/12/26 00:14:05;;;;;;;;;;;21.80;47.00;;;;;;5115754;28;19974;-50
2021/12/26 00:16:33;;;;;;;;;;;21.80;46.90;;;;;;5116257;28;19959;-52
2021/12/26 00:19:00;;;;;;;;;;;21.80;46.90;;;;;;5114388;27;19955;-57
2021/12/26 00:21:27;;;;;;;;;;;21.80;47.00;;;;;;5115416;28;19930;-54
2021/12/26 00:23:57;;;;;;;;;;;21.80;46.90;;;;;;5114943;28;19954;-55
2021/12/26 00:26:31;;;;;;;;;;;21.80;46.90;;;;;;5115265;28;19958;-56
2021/12/26 00:28:59;;;;;;;;;;;21.80;46.90;;;;;;5115075;28;19923;-55
2021/12/26 00:31:26;;;;;;;;;;;21.80;46.90;;;;;;5115323;28;19927;-55
2021/12/26 00:33:53;;;;;;;;;;;21.80;46.90;;;;;;5114222;28;19931;-53
2021/12/26 00:36:20;;;;;;;;;;;21.80;46.90;;;;;;5115515;28;19923;-52
2021/12/26 00:38:47;;;;;;;;;;;21.80;46.90;;;;;;5115266;28;19923;-57
2021/12/26 00:41:14;;;;;;;;;;;21.80;46.90;;;;;;5115215;28;19928;-57
2021/12/26 00:43:41;;;;;;;;;;;21.80;46.90;;;;;;5114883;28;19928;-57
2021/12/26 00:46:12;;;;;;;;;;;21.80;46.90;;;;;;5114904;28;19950;-57
2021/12/26 00:48:40;;;;;;;;;;;21.80;46.90;;;;;;5113540;27;20456;-53
2021/12/26 00:51:07;;;;;;;;;;;21.80;46.90;;;;;;5114669;28;19971;-57
2021/12/26 00:53:34;;;;;;;;;;;21.80;46.90;;;;;;5114826;28;19924;-58
2021/12/26 00:56:01;;;;;;;;;;;21.80;46.90;;;;;;5114637;28;19977;-49
2021/12/26 00:58:28;;;;;;;;;;;21.80;46.90;;;;;;5114815;28;20295;-49
2021/12/26 01:00:55;;;;;;;;;;;21.80;46.90;;;;;;5114550;28;20429;-56
2021/12/26 01:03:22;;;;;;;;;;;21.80;46.90;;;;;;5113600;27;20489;-55
2021/12/26 01:05:52;;;;;;;;;;;21.80;46.90;;;;;;5114524;28;19923;-58
2021/12/26 01:08:21;;;;;;;;;;;21.80;46.90;;;;;;5114784;28;19967;-47
2021/12/26 01:10:52;;;;;;;;;;;21.80;46.90;;;;;;5114703;28;19924;-55
2021/12/26 01:13:33;;;;;;;;;;;21.80;46.90;;;;;;5114758;28;20371;-58
2021/12/26 01:16:02;;;;;;;;;;;21.80;46.90;;;;;;5114699;28;19924;-58
2021/12/26 01:18:31;;;;;;;;;;;21.70;46.80;;;;;;5112945;28;19923;-49
2021/12/26 01:21:17;;;;;;;;;;;21.80;46.90;;;;;;5114066;28;19972;-52
2021/12/26 01:23:46;;;;;;;;;;;21.70;46.70;;;;;;5114035;28;19923;-48
2021/12/26 01:26:16;;;;;;;;;;;21.80;46.90;;;;;;5115393;28;19949;-58
2021/12/26 01:28:43;;;;;;;;;;;21.80;46.90;;;;;;5114092;28;19927;-54
2021/12/26 01:31:10;;;;;;;;;;;21.70;46.70;;;;;;5114415;28;19928;-48
2021/12/26 01:33:37;;;;;;;;;;;21.70;46.70;;;;;;5113372;28;19924;-49
2021/12/26 01:36:05;;;;;;;;;;;21.70;46.80;;;;;;5114162;28;19966;-48
2021/12/26 01:38:32;;;;;;;;;;;21.70;46.70;;;;;;5096396;28;19923;-51
2021/12/26 01:41:01;;;;;;;;;;;21.80;46.80;;;;;;5114312;28;19969;-50
2021/12/26 01:43:30;;;;;;;;;;;21.80;46.80;;;;;;5114405;28;20358;-51
2021/12/26 01:45:57;;;;;;;;;;;21.70;46.70;;;;;;5114390;28;19924;-53
2021/12/26 01:48:24;;;;;;;;;;;21.70;46.70;;;;;;5112787;28;19924;-49
2021/12/26 01:50:52;;;;;;;;;;;21.80;46.80;;;;;;5114338;28;19924;-54
2021/12/26 01:53:22;;;;;;;;;;;21.70;46.70;;;;;;5113744;28;19924;-58
2021/12/26 01:55:51;;;;;;;;;;;21.70;46.70;;;;;;5113991;28;20035;-56
2021/12/26 01:58:23;;;;;;;;;;;21.70;46.70;;;;;;5114139;28;19946;-51
2021/12/26 02:00:52;;;;;;;;;;;21.70;46.70;;;;;;5096830;28;19924;-49
2021/12/26 02:03:20;;;;;;;;;;;21.70;46.70;;;;;;5112677;28;20041;-51
2021/12/26 02:05:47;;;;;;;;;;;21.70;46.70;;;;;;5114195;28;19927;-56
2021/12/26 02:08:14;;;;;;;;;;;21.70;46.70;;;;;;5114145;28;19928;-52
2021/12/26 02:10:41;;;;;;;;;;;21.70;46.80;;;;;;5114143;28;19924;-55
2021/12/26 02:13:09;;;;;;;;;;;21.70;46.70;;;;;;5113707;28;19977;-51
2021/12/26 02:15:36;;;;;;;;;;;21.70;46.70;;;;;;5114102;28;19937;-57
2021/12/26 02:18:05;;;;;;;;;;;21.70;46.70;;;;;;5114625;28;19927;-56
2021/12/26 02:23:15;;;;;;;;;;;21.70;46.70;;;;;;5113343;28;20398;-51
2021/12/26 02:28:13;;;;;;;;;;;21.70;46.70;;;;;;5114032;28;20341;-53
2021/12/26 02:30:40;;;;;;;;;;;21.70;46.70;;;;;;5095955;28;19924;-57
2021/12/26 02:33:11;;;;;;;;;;;21.70;46.80;;;;;;5117842;28;20268;-55
2021/12/26 02:35:38;;;;;;;;;;;21.70;46.80;;;;;;5116382;28;19993;-57
2021/12/26 02:38:06;;;;;;;;;;;21.70;46.80;;;;;;5117611;28;19984;-55
2021/12/26 02:40:33;;;;;;;;;;;21.70;46.70;;;;;;5117288;28;19931;-53
2021/12/26 02:43:00;;;;;;;;;;;21.70;47.30;;;;;;5117226;28;19924;-51
2021/12/26 02:45:27;;;;;;;;;;;21.70;46.70;;;;;;5117498;28;19923;-57
2021/12/26 02:47:54;;;;;;;;;;;21.70;46.70;;;;;;5117120;28;19923;-51
2021/12/26 02:50:24;;;;;;;;;;;21.70;46.70;;;;;;5116045;27;19967;-56
2021/12/26 02:52:51;;;;;;;;;;;21.70;46.70;;;;;;5117138;28;19992;-50
2021/12/26 02:55:20;;;;;;;;;;;21.70;46.70;;;;;;5117563;28;19928;-47
2021/12/26 02:57:51;;;;;;;;;;;21.70;46.70;;;;;;5116850;28;20383;-50
2021/12/26 03:00:21;;;;;;;;;;;21.70;46.70;;;;;;5116915;28;20382;-50
2021/12/26 03:02:50;;;;;;;;;;;21.60;46.70;;;;;;5117230;28;19931;-48
2021/12/26 03:05:18;;;;;;;;;;;21.60;46.70;;;;;;5116149;27;19971;-48
2021/12/26 03:07:46;;;;;;;;;;;21.60;46.70;;;;;;5116724;28;19931;-49
2021/12/26 03:10:22;;;;;;;;;;;21.60;46.70;;;;;;5116706;28;19924;-50
2021/12/26 03:12:55;;;;;;;;;;;21.60;46.70;;;;;;5116617;28;19924;-52
2021/12/26 03:15:22;;;;;;;;;;;21.60;46.70;;;;;;5116666;28;20371;-53
2021/12/26 03:17:50;;;;;;;;;;;21.60;46.70;;;;;;5116550;28;19940;-51
2021/12/26 03:20:19;;;;;;;;;;;21.60;46.70;;;;;;5115382;27;19931;-48
2021/12/26 03:22:46;;;;;;;;;;;21.60;46.70;;;;;;5115981;28;19978;-56
2021/12/26 03:25:14;;;;;;;;;;;21.60;46.70;;;;;;5116769;28;20366;-48
2021/12/26 03:27:41;;;;;;;;;;;21.60;46.70;;;;;;5116600;28;19924;-56
2021/12/26 03:30:10;;;;;;;;;;;21.60;46.70;;;;;;5116344;28;20462;-48
2021/12/26 03:32:37;;;;;;;;;;;21.60;46.70;;;;;;5116530;28;20019;-50
2021/12/26 03:35:05;;;;;;;;;;;21.60;46.70;;;;;;5097492;28;20287;-51
2021/12/26 03:37:32;;;;;;;;;;;21.60;46.70;;;;;;5116222;28;20406;-57
2021/12/26 03:39:59;;;;;;;;;;;21.60;46.70;;;;;;5116177;28;19923;-54
2021/12/26 03:42:26;;;;;;;;;;;21.60;46.70;;;;;;5115652;28;19931;-55
2021/12/26 03:44:53;;;;;;;;;;;21.60;46.70;;;;;;5116082;28;19955;-50
2021/12/26 03:47:21;;;;;;;;;;;21.60;46.70;;;;;;5116601;28;19923;-57
2021/12/26 03:49:49;;;;;;;;;;;21.60;46.70;;;;;;5114652;27;20410;-55
2021/12/26 03:52:17;;;;;;;;;;;21.60;46.70;;;;;;5115690;28;20015;-57
2021/12/26 03:54:44;;;;;;;;;;;21.60;46.70;;;;;;5116163;28;20292;-58
2021/12/26 03:57:11;;;;;;;;;;;21.60;46.60;;;;;;5115700;28;20349;-58
2021/12/26 03:59:38;;;;;;;;;;;21.60;46.70;;;;;;5116063;28;20014;-55
2021/12/26 04:02:05;;;;;;;;;;;21.60;46.70;;;;;;5115680;28;19970;-56
2021/12/26 04:04:32;;;;;;;;;;;21.60;46.70;;;;;;5114894;27;19966;-53
2021/12/26 04:06:59;;;;;;;;;;;21.60;46.70;;;;;;5115912;28;19963;-52
2021/12/26 04:09:26;;;;;;;;;;;21.60;46.70;;;;;;5097552;28;20335;-57
2021/12/26 04:11:53;;;;;;;;;;;21.60;46.70;;;;;;5115443;28;19924;-56
2021/12/26 04:14:21;;;;;;;;;;;21.60;46.70;;;;;;5115467;28;19953;-53
2021/12/26 04:16:48;;;;;;;;;;;21.60;46.70;;;;;;5115403;28;20014;-51
2021/12/26 04:19:15;;;;;;;;;;;21.50;46.60;;;;;;5115706;28;19924;-50
2021/12/26 04:21:42;;;;;;;;;;;21.60;46.70;;;;;;5114021;28;20014;-56
2021/12/26 04:24:09;;;;;;;;;;;21.50;46.60;;;;;;5114950;28;20370;-49
2021/12/26 04:26:36;;;;;;;;;;;21.60;46.70;;;;;;5115545;28;19985;-51
2021/12/26 04:29:03;;;;;;;;;;;21.50;46.60;;;;;;5115039;28;20022;-52
2021/12/26 04:31:30;;;;;;;;;;;21.50;46.60;;;;;;5115145;28;19959;-55
2021/12/26 04:33:57;;;;;;;;;;;21.50;46.60;;;;;;5115331;28;19967;-54
2021/12/26 04:36:25;;;;;;;;;;;21.50;46.60;;;;;;5114066;28;19997;-54
2021/12/26 04:38:51;;;;;;;;;;;21.50;46.60;;;;;;5114972;28;20018;-50
2021/12/26 04:41:18;;;;;;;;;;;21.50;46.60;;;;;;5097266;28;20033;-57
2021/12/26 04:43:45;;;;;;;;;;;21.50;46.60;;;;;;5115208;28;19979;-53
2021/12/26 04:46:12;;;;;;;;;;;21.50;46.60;;;;;;5115149;28;19963;-50
2021/12/26 04:48:41;;;;;;;;;;;21.50;46.70;;;;;;5114795;28;20034;-53
2021/12/26 04:51:09;;;;;;;;;;;21.50;46.60;;;;;;5113674;28;20414;-46
2021/12/26 04:53:37;;;;;;;;;;;21.50;46.60;;;;;;5114407;28;19969;-51
2021/12/26 04:56:04;;;;;;;;;;;21.50;46.60;;;;;;5114828;28;19980;-47
2021/12/26 04:58:32;;;;;;;;;;;21.50;46.60;;;;;;5114548;28;20387;-54
2021/12/26 05:00:59;;;;;;;;;;;21.50;46.60;;;;;;5114920;28;19928;-51
2021/12/26 05:03:27;;;;;;;;;;;21.50;46.60;;;;;;5114886;28;19924;-58
2021/12/26 05:05:54;;;;;;;;;;;21.50;46.60;;;;;;5121324;27;19969;-51
2021/12/26 05:08:20;;;;;;;;;;;21.50;46.60;;;;;;5135352;27;19924;-54
2021/12/26 05:10:47;;;;;;;;;;;21.50;46.60;;;;;;5134988;27;19974;-53
2021/12/26 05:13:14;;;;;;;;;;;21.50;46.60;;;;;;5135175;27;19935;-51
2021/12/26 05:15:41;;;;;;;;;;;21.50;46.60;;;;;;5117065;27;19923;-55
2021/12/26 05:18:08;;;;;;;;;;;21.50;46.60;;;;;;5134916;27;19934;-55
2021/12/26 05:20:35;;;;;;;;;;;21.50;46.50;;;;;;5129056;27;19932;-55
2021/12/26 05:23:04;;;;;;;;;;;21.50;46.60;;;;;;5113843;28;20446;-50
2021/12/26 05:25:31;;;;;;;;;;;21.50;46.50;;;;;;5114323;28;19924;-50
2021/12/26 05:27:58;;;;;;;;;;;21.50;46.50;;;;;;5114137;28;19931;-49
2021/12/26 05:30:26;;;;;;;;;;;21.50;46.60;;;;;;5115088;28;19960;-58
2021/12/26 05:32:53;;;;;;;;;;;21.50;46.60;;;;;;5114164;28;19969;-52
2021/12/26 05:35:20;;;;;;;;;;;21.50;46.50;;;;;;5113013;28;19971;-58
2021/12/26 05:37:48;;;;;;;;;;;21.50;46.60;;;;;;5114453;28;19963;-58
2021/12/26 05:40:15;;;;;;;;;;;21.50;46.60;;;;;;5114111;28;19970;-52
2021/12/26 05:42:43;;;;;;;;;;;21.50;46.60;;;;;;5114079;28;19974;-53
2021/12/26 05:45:11;;;;;;;;;;;21.50;46.60;;;;;;5114394;28;19949;-52
2021/12/26 05:47:38;;;;;;;;;;;21.50;46.60;;;;;;5097167;28;19931;-56
2021/12/26 05:50:06;;;;;;;;;;;21.50;47.20;;;;;;5114021;28;20097;-49
2021/12/26 05:52:33;;;;;;;;;;;21.50;46.60;;;;;;5112568;28;20507;-53
2021/12/26 05:55:00;;;;;;;;;;;21.50;46.50;;;;;;5114323;28;20264;-57
2021/12/26 05:57:27;;;;;;;;;;;21.50;46.50;;;;;;5114155;28;19962;-50
2021/12/26 05:59:54;;;;;;;;;;;21.50;46.50;;;;;;5095935;28;19974;-50
2021/12/26 06:02:21;;;;;;;;;;;21.50;46.50;;;;;;5096236;28;19924;-55
2021/12/26 06:04:48;;;;;;;;;;;21.50;46.50;;;;;;5113942;28;19924;-54
2021/12/26 06:07:15;;;;;;;;;;;21.50;46.50;;;;;;5116688;28;19923;-55
2021/12/26 06:09:42;;;;;;;;;;;21.40;46.40;;;;;;5118240;28;20022;-54
2021/12/26 06:12:09;;;;;;;;;;;21.50;46.50;;;;;;5118172;28;20047;-49
2021/12/26 06:14:36;;;;;;;;;;;21.50;46.60;;;;;;5118355;28;19930;-53
2021/12/26 06:17:04;;;;;;;;;;;21.40;46.40;;;;;;5117841;28;19924;-56
2021/12/26 06:19:31;;;;;;;;;;;21.40;46.40;;;;;;5117726;28;19924;-55
2021/12/26 06:21:58;;;;;;;;;;;21.40;46.40;;;;;;5116299;27;20010;-58
2021/12/26 06:24:25;;;;;;;;;;;21.40;46.40;;;;;;5099623;28;20478;-52
2021/12/26 06:26:52;;;;;;;;;;;21.40;46.40;;;;;;5117782;28;19930;-55
2021/12/26 06:29:19;;;;;;;;;;;21.40;46.40;;;;;;5117812;28;20018;-56
2021/12/26 06:31:46;;;;;;;;;;;21.40;46.40;;;;;;5117816;28;20343;-55
2021/12/26 06:34:13;;;;;;;;;;;21.40;46.40;;;;;;5117394;28;19924;-59
2021/12/26 06:36:41;;;;;;;;;;;21.40;46.40;;;;;;5116437;28;19924;-57
2021/12/26 06:39:08;;;;;;;;;;;21.40;46.40;;;;;;5117353;28;19923;-56
2021/12/26 06:41:38;;;;;;;;;;;21.40;46.40;;;;;;5117286;28;19970;-52
2021/12/26 06:44:08;;;;;;;;;;;21.40;46.40;;;;;;5117221;28;19930;-51
2021/12/26 06:46:36;;;;;;;;;;;21.40;46.40;;;;;;5117594;28;19923;-58
2021/12/26 06:49:04;;;;;;;;;;;21.40;46.40;;;;;;5118268;28;19931;-57
2021/12/26 06:51:32;;;;;;;;;;;21.40;46.40;;;;;;5115999;28;20447;-59
2021/12/26 06:53:59;;;;;;;;;;;21.40;46.40;;;;;;5117376;28;19927;-57
2021/12/26 06:56:26;;;;;;;;;;;21.40;46.40;;;;;;5117553;28;19928;-56
2021/12/26 06:58:53;;;;;;;;;;;21.40;46.40;;;;;;5117147;28;19924;-58
2021/12/26 07:01:20;;;;;;;;;;;21.40;46.40;;;;;;5116928;28;19945;-57
2021/12/26 07:03:47;;;;;;;;;;;21.40;46.40;;;;;;5117194;28;19967;-57
2021/12/26 07:06:17;;;;;;;;;;;21.40;46.40;;;;;;5115638;28;19924;-59
2021/12/26 07:08:44;;;;;;;;;;;21.40;46.40;;;;;;5117099;28;19957;-51
2021/12/26 07:11:13;;;;;;;;;;;21.40;46.40;;;;;;5117055;28;19949;-55
2021/12/26 07:13:40;;;;;;;;;;;21.40;46.40;;;;;;5116609;28;19924;-54
2021/12/26 07:16:07;;;;;;;;;;;21.40;46.40;;;;;;5116643;28;19975;-58
2021/12/26 07:18:34;;;;;;;;;;;21.40;46.40;;;;;;5116090;28;19927;-58
2021/12/26 07:21:02;;;;;;;;;;;21.40;46.40;;;;;;5116875;28;20325;-55
2021/12/26 07:23:29;;;;;;;;;;;21.40;46.30;;;;;;5093216;28;19973;-55
2021/12/26 07:25:56;;;;;;;;;;;21.40;46.30;;;;;;5096649;28;19932;-57
2021/12/26 07:28:23;;;;;;;;;;;21.40;46.40;;;;;;5095156;28;19924;-59
2021/12/26 07:30:50;;;;;;;;;;;21.40;46.30;;;;;;5096021;28;19924;-52
2021/12/26 07:33:17;;;;;;;;;;;21.40;46.30;;;;;;5095894;28;19924;-56
2021/12/26 07:35:44;;;;;;;;;;;21.40;46.30;;;;;;5096141;28;20435;-59
2021/12/26 07:38:11;;;;;;;;;;;21.40;46.30;;;;;;5095089;28;19950;-56
2021/12/26 07:40:38;;;;;;;;;;;21.40;46.30;;;;;;5096187;28;19924;-48
2021/12/26 07:43:05;;;;;;;;;;;21.40;46.30;;;;;;5095745;28;20416;-54
2021/12/26 07:45:32;;;;;;;;;;;21.40;46.30;;;;;;5095756;28;19970;-50
2021/12/26 07:47:59;;;;;;;;;;;21.40;46.20;;;;;;5095664;28;19978;-57
2021/12/26 07:50:26;;;;;;;;;;;21.40;46.20;;;;;;5095916;28;19924;-53
2021/12/26 07:52:54;;;;;;;;;;;21.40;46.20;;;;;;5094743;28;19924;-53
2021/12/26 07:55:22;;;;;;;;;;;21.50;46.30;;;;;;5095796;28;19977;-51
2021/12/26 07:57:50;;;;;;;;;;;21.50;46.20;;;;;;5095800;28;19924;-51
2021/12/26 08:00:18;;;;;;;;;;;21.50;46.20;;;;;;5095748;28;19994;-50
2021/12/26 08:02:45;;;;;;;;;;;21.50;46.20;;;;;;5095656;28;19950;-59
2021/12/26 08:05:13;;;;;;;;;;;21.50;46.10;;;;;;5095631;28;19985;-50
2021/12/26 08:07:40;;;;;;;;;;;21.50;46.10;;;;;;5094346;28;19978;-52
2021/12/26 08:10:08;;;;;;;;;;;21.50;46.10;;;;;;5095277;28;19928;-55
2021/12/26 08:12:35;;;;;;;;;;;21.50;46.00;;;;;;5095492;28;19928;-56
2021/12/26 08:15:03;;;;;;;;;;;21.50;46.10;;;;;;5093918;28;20342;-52
2021/12/26 08:17:30;;;;;;;;;;;21.50;46.00;;;;;;5095425;28;19924;-55
2021/12/26 08:19:58;;;;;;;;;;;21.50;46.00;;;;;;5095048;28;19924;-57
2021/12/26 08:22:25;;;;;;;;;;;21.50;46.00;;;;;;5098215;28;19927;-56
2021/12/26 08:24:52;;;;;;;;;;;21.50;46.00;;;;;;5115340;28;19924;-55
2021/12/26 08:27:20;;;;;;;;;;;21.50;45.90;;;;;;5115437;28;19924;-54
2021/12/26 08:29:47;;;;;;;;;;;21.50;45.90;;;;;;5115159;28;19968;-57
2021/12/26 08:32:17;;;;;;;;;;;21.50;45.90;;;;;;5115113;28;19924;-53
2021/12/26 08:34:45;;;;;;;;;;;21.50;45.80;;;;;;5115019;28;20049;-55
2021/12/26 08:37:13;;;;;;;;;;;21.50;45.80;;;;;;5114152;27;20394;-57
2021/12/26 08:39:41;;;;;;;;;;;21.50;45.80;;;;;;5135766;27;20018;-50
2021/12/26 08:42:09;;;;;;;;;;;21.60;45.80;;;;;;5135792;27;19927;-49
2021/12/26 08:44:36;;;;;;;;;;;21.60;45.80;;;;;;5135713;27;19923;-59
2021/12/26 08:47:04;;;;;;;;;;;21.60;45.70;;;;;;5135450;27;20400;-51
2021/12/26 08:49:31;;;;;;;;;;;21.60;45.70;;;;;;5135692;27;20294;-50
2021/12/26 08:51:58;;;;;;;;;;;21.60;45.60;;;;;;5135999;27;19927;-50
2021/12/26 08:54:28;;;;;;;;;;;21.60;45.60;;;;;;5132998;27;19934;-55
2021/12/26 08:56:55;;;;;;;;;;;21.60;45.60;;;;;;5135430;27;19973;-50
2021/12/26 08:59:29;;;;;;;;;;;21.70;45.60;;;;;;5135744;27;19923;-53
2021/12/26 09:01:58;;;;;;;;;;;21.70;45.60;;;;;;5135193;27;20022;-56
2021/12/26 09:04:25;;;;;;;;;;;21.70;45.50;;;;;;5135438;27;19931;-54
2021/12/26 09:06:52;;;;;;;;;;;21.70;45.50;;;;;;5135117;27;19931;-48
2021/12/26 09:09:19;;;;;;;;;;;21.70;45.40;;;;;;5117974;27;19946;-56
2021/12/26 09:11:47;;;;;;;;;;;21.70;45.40;;;;;;5114464;28;19977;-54
2021/12/26 09:14:14;;;;;;;;;;;21.80;45.40;;;;;;5114376;28;19923;-54
2021/12/26 09:16:42;;;;;;;;;;;21.80;45.40;;;;;;5114722;28;19946;-53
2021/12/26 09:19:09;;;;;;;;;;;21.80;45.30;;;;;;5114374;28;19923;-50
2021/12/26 09:21:36;;;;;;;;;;;21.80;45.30;;;;;;5114502;28;19927;-54
2021/12/26 09:24:04;;;;;;;;;;;21.80;45.30;;;;;;5105907;27;19953;-57
2021/12/26 09:26:31;;;;;;;;;;;21.80;45.20;;;;;;5135134;27;19972;-56
2021/12/26 09:28:59;;;;;;;;;;;21.80;45.20;;;;;;5134643;27;19923;-54
2021/12/26 09:31:26;;;;;;;;;;;21.80;45.20;;;;;;5134996;27;19964;-51
2021/12/26 09:33:53;;;;;;;;;;;21.80;45.10;;;;;;5134995;27;19930;-55
2021/12/26 09:36:20;;;;;;;;;;;21.80;45.10;;;;;;5135013;27;19988;-52
2021/12/26 09:38:47;;;;;;;;;;;21.80;45.10;;;;;;5124773;28;19969;-53
2021/12/26 09:41:14;;;;;;;;;;;21.90;45.20;;;;;;5119007;28;19923;-52
2021/12/26 09:43:42;;;;;;;;;;;21.90;45.10;;;;;;5121254;28;19976;-47
2021/12/26 09:46:09;;;;;;;;;;;21.90;45.10;;;;;;5121236;28;19928;-53
2021/12/26 09:48:36;;;;;;;;;;;21.90;45.00;;;;;;5120864;28;19971;-54
2021/12/26 09:51:03;;;;;;;;;;;21.90;45.00;;;;;;5121940;28;19928;-54
2021/12/26 09:53:37;;;;;;;;;;;21.90;45.00;;;;;;5122992;27;19977;-57
2021/12/26 09:56:06;;;;;;;;;;;21.90;45.00;;;;;;5141747;27;19923;-48
2021/12/26 09:58:34;;;;;;;;;;;22.00;45.00;;;;;;5141482;27;19968;-50
2021/12/26 10:01:01;;;;;;;;;;;22.00;45.00;;;;;;5141361;27;20362;-55
2021/12/26 10:03:35;;;;;;;;;;;22.00;44.90;;;;;;5141339;27;19923;-52
2021/12/26 10:06:09;;;;;;;;;;;22.00;44.90;;;;;;5124296;27;20305;-57
2021/12/26 10:08:50;;;;;;;;;;;22.00;44.80;;;;;;5135630;27;19924;-54
2021/12/26 10:11:18;;;;;;;;;;;22.00;44.70;;;;;;5120976;28;19924;-56
2021/12/26 10:13:54;;;;;;;;;;;22.00;44.70;;;;;;5120597;28;19973;-50
2021/12/26 10:16:23;;;;;;;;;;;22.10;44.70;;;;;;5120948;28;19931;-53
2021/12/26 10:18:50;;;;;;;;;;;22.10;44.70;;;;;;5121469;28;20007;-56
2021/12/26 10:21:23;;;;;;;;;;;22.10;44.70;;;;;;5120785;28;19923;-55
2021/12/26 10:23:54;;;;;;;;;;;22.10;44.70;;;;;;5119036;27;19969;-52
2021/12/26 10:26:25;;;;;;;;;;;22.10;44.70;;;;;;5120523;28;20379;-54
2021/12/26 10:29:07;;;;;;;;;;;22.10;44.60;;;;;;5120739;28;19924;-51
2021/12/26 10:31:35;;;;;;;;;;;22.10;44.60;;;;;;5120448;28;20391;-56
2021/12/26 10:34:02;;;;;;;;;;;22.10;44.50;;;;;;5120391;28;20018;-54
2021/12/26 10:36:29;;;;;;;;;;;22.10;44.50;;;;;;5120744;28;19974;-52
2021/12/26 10:39:19;;;;;;;;;;;22.10;44.50;;;;;;5119099;27;20064;-56
2021/12/26 10:41:51;;;;;;;;;;;22.20;44.60;;;;;;5107444;28;20398;-57
2021/12/26 10:44:22;;;;;;;;;;;22.20;44.50;;;;;;5120730;28;19923;-56
2021/12/26 10:46:51;;;;;;;;;;;22.20;44.50;;;;;;5120698;28;19985;-54
2021/12/26 10:49:26;;;;;;;;;;;22.20;44.40;;;;;;5120599;28;19923;-55
2021/12/26 10:51:53;;;;;;;;;;;22.20;44.40;;;;;;5117618;28;19973;-50
2021/12/26 10:54:25;;;;;;;;;;;22.20;44.40;;;;;;5115766;27;19977;-56
2021/12/26 10:57:13;;;;;;;;;;;22.20;44.30;;;;;;5099709;28;19928;-48
2021/12/26 10:59:42;;;;;;;;;;;22.20;44.30;;;;;;5099293;28;19973;-53
2021/12/26 11:02:09;;;;;;;;;;;22.20;44.20;;;;;;5117239;28;19945;-57
2021/12/26 11:04:37;;;;;;;;;;;22.20;44.20;;;;;;5116882;28;19967;-52
2021/12/26 11:07:08;;;;;;;;;;;22.20;44.20;;;;;;5117174;28;19977;-48
2021/12/26 11:09:36;;;;;;;;;;;22.20;44.20;;;;;;5115899;28;19923;-49
2021/12/26 11:12:08;;;;;;;;;;;22.30;44.20;;;;;;5098772;28;19930;-54
2021/12/26 11:14:54;;;;;;;;;;;22.20;44.20;;;;;;5116977;28;19923;-57
2021/12/26 11:17:32;;;;;;;;;;;22.30;44.20;;;;;;5116688;28;19924;-50
2021/12/26 11:20:00;;;;;;;;;;;22.30;44.20;;;;;;5116901;28;20271;-49
2021/12/26 11:22:27;;;;;;;;;;;22.30;44.20;;;;;;5116134;28;19927;-53
2021/12/26 11:24:54;;;;;;;;;;;22.30;44.10;;;;;;5115651;27;19971;-58
2021/12/26 11:27:21;;;;;;;;;;;22.30;44.10;;;;;;5116336;28;20379;-57
2021/12/26 11:29:48;;;;;;;;;;;22.30;44.10;;;;;;5117248;28;19924;-47
2021/12/26 11:32:16;;;;;;;;;;;22.30;44.10;;;;;;5116671;28;20006;-57
2021/12/26 11:34:47;;;;;;;;;;;22.30;44.10;;;;;;5116263;28;19970;-51
2021/12/26 11:37:15;;;;;;;;;;;22.30;44.10;;;;;;5116578;28;19928;-48
2021/12/26 11:39:43;;;;;;;;;;;22.30;44.00;;;;;;5115297;28;20333;-58
2021/12/26 11:42:13;;;;;;;;;;;22.30;44.00;;;;;;5116704;28;19923;-56
2021/12/26 11:45:01;;;;;;;;;;;22.30;44.00;;;;;;5116097;28;19923;-52
2021/12/26 11:47:57;;;;;;;;;;;22.30;44.00;;;;;;5116291;28;20291;-52
2021/12/26 11:50:42;;;;;;;;;;;22.30;44.00;;;;;;5116317;28;19977;-55
2021/12/26 11:53:28;;;;;;;;;;;22.30;44.00;;;;;;5115919;28;19924;-56
2021/12/26 11:56:07;;;;;;;;;;;22.30;44.00;;;;;;5114828;28;19950;-54
2021/12/26 11:58:34;;;;;;;;;;;22.40;44.00;;;;;;5116065;28;19924;-54
2021/12/26 12:01:02;;;;;;;;;;;22.40;44.00;;;;;;5116052;28;20395;-51
2021/12/26 12:03:30;;;;;;;;;;;22.40;44.00;;;;;;5115983;28;20014;-50
2021/12/26 12:05:58;;;;;;;;;;;22.40;44.00;;;;;;5116025;28;19924;-55
2021/12/26 12:08:35;;;;;;;;;;;22.40;44.00;;;;;;5115911;28;19924;-51
2021/12/26 12:11:03;;;;;;;;;;;22.40;44.00;;;;;;5114628;28;19993;-50
2021/12/26 12:13:39;;;;;;;;;;;22.40;44.00;;;;;;5115546;28;19978;-55
2021/12/26 12:16:08;;;;;;;;;;;22.40;44.00;;;;;;5115706;28;20321;-57
2021/12/26 12:18:35;;;;;;;;;;;22.40;44.00;;;;;;5115764;28;20319;-52
2021/12/26 12:21:11;;;;;;;;;;;22.40;43.90;;;;;;5115400;28;19969;-48
2021/12/26 12:23:56;;;;;;;;;;;22.40;43.90;;;;;;5115053;28;19930;-49
2021/12/26 12:26:47;;;;;;;;;;;22.40;43.90;;;;;;5114052;28;19924;-57
2021/12/26 12:29:23;;;;;;;;;;;22.40;43.90;;;;;;5013217;28;19973;-51
2021/12/26 12:32:20;;;;;;;;;;;22.40;43.80;;;;;;5013338;28;20337;-58
2021/12/26 12:34:55;;;;;;;;;;;22.40;43.80;;;;;;4974018;28;19973;-52
2021/12/26 12:37:42;;;;;;;;;;;22.50;43.90;;;;;;4973796;28;19949;-57
2021/12/26 12:40:12;;;;;;;;;;;22.50;43.80;;;;;;4976411;28;19926;-54
2021/12/26 12:42:41;;;;;;;;;;;22.50;43.80;;;;;;4993077;28;19925;-55
2021/12/26 12:45:08;;;;;;;;;;;22.50;43.80;;;;;;4993241;28;19929;-52
2021/12/26 12:47:35;;;;;;;;;;;22.50;43.80;;;;;;4993199;28;19977;-53
2021/12/26 12:50:03;;;;;;;;;;;22.50;43.80;;;;;;4993209;28;19988;-52
2021/12/26 12:52:42;;;;;;;;;;;22.50;43.80;;;;;;4992953;28;20074;-51
2021/12/26 12:55:11;;;;;;;;;;;22.50;43.90;;;;;;4991352;28;19934;-47
2021/12/26 12:57:42;;;;;;;;;;;22.50;43.90;;;;;;4992820;28;20380;-50
2021/12/26 13:00:21;;;;;;;;;;;22.50;43.80;;;;;;4992970;28;19976;-54
2021/12/26 13:02:48;;;;;;;;;;;22.50;44.40;;;;;;4992757;28;19925;-53
2021/12/26 13:05:23;;;;;;;;;;;22.50;43.80;;;;;;4997546;28;19930;-50
2021/12/26 13:07:58;;;;;;;;;;;22.50;43.80;;;;;;5051978;28;20370;-58
2021/12/26 13:10:25;;;;;;;;;;;22.50;43.80;;;;;;5044964;28;19967;-51
2021/12/26 13:12:52;;;;;;;;;;;22.50;43.80;;;;;;5114704;28;19931;-54
2021/12/26 13:15:19;;;;;;;;;;;22.50;43.80;;;;;;5113431;28;19977;-57
2021/12/26 13:17:46;;;;;;;;;;;22.50;43.80;;;;;;5114694;28;20341;-52
2021/12/26 13:20:15;;;;;;;;;;;22.50;43.80;;;;;;5114625;28;19924;-55
2021/12/26 13:22:42;;;;;;;;;;;22.50;43.80;;;;;;5114070;28;20264;-53
2021/12/26 13:25:11;;;;;;;;;;;22.50;43.80;;;;;;5113881;28;19938;-55
2021/12/26 13:27:38;;;;;;;;;;;22.50;44.40;;;;;;5113838;28;19923;-56
2021/12/26 13:30:06;;;;;;;;;;;22.50;43.80;;;;;;5114239;28;19928;-55
2021/12/26 13:32:37;;;;;;;;;;;22.50;43.80;;;;;;5114525;28;19924;-56
2021/12/26 13:35:05;;;;;;;;;;;22.50;43.80;;;;;;5114451;28;20014;-51
2021/12/26 13:37:33;;;;;;;;;;;22.50;43.80;;;;;;5114449;28;19923;-54
2021/12/26 13:40:02;;;;;;;;;;;22.50;43.80;;;;;;5114114;28;19924;-54
2021/12/26 13:42:30;;;;;;;;;;;22.50;43.80;;;;;;5113113;28;19930;-56
2021/12/26 13:44:58;;;;;;;;;;;22.50;43.80;;;;;;5114328;28;19924;-54
2021/12/26 13:47:25;;;;;;;;;;;22.50;43.80;;;;;;5114607;28;20020;-58
2021/12/26 13:50:06;;;;;;;;;;;22.50;43.80;;;;;;5114368;28;19977;-54
2021/12/26 13:52:33;;;;;;;;;;;22.50;43.80;;;;;;5113851;28;19928;-51
2021/12/26 13:55:00;;;;;;;;;;;22.50;43.80;;;;;;5096209;28;19989;-56
2021/12/26 13:57:27;;;;;;;;;;;22.50;43.80;;;;;;5112582;28;19969;-53
2021/12/26 13:59:55;;;;;;;;;;;22.50;43.80;;;;;;5114263;28;19924;-53
2021/12/26 14:02:48;;;;;;;;;;;22.50;43.80;;;;;;5114244;28;19992;-54
2021/12/26 14:05:18;;;;;;;;;;;22.50;43.80;;;;;;5109818;28;19927;-55
2021/12/26 14:07:51;;;;;;;;;;;22.50;43.80;;;;;;5114183;28;20356;-53
2021/12/26 14:10:20;;;;;;;;;;;22.50;43.80;;;;;;5113928;28;19977;-50
2021/12/26 14:12:49;;;;;;;;;;;22.50;43.80;;;;;;5112632;28;19927;-48
2021/12/26 14:15:25;;;;;;;;;;;22.50;43.80;;;;;;5114047;28;19932;-49
2021/12/26 14:17:58;;;;;;;;;;;22.50;43.80;;;;;;5113842;28;19924;-53
2021/12/26 14:20:27;;;;;;;;;;;22.50;43.80;;;;;;5114091;28;19924;-56
2021/12/26 14:22:54;;;;;;;;;;;22.50;43.80;;;;;;5113522;28;19931;-50
2021/12/26 14:25:22;;;;;;;;;;;22.50;43.80;;;;;;5114024;28;19928;-49
2021/12/26 14:27:50;;;;;;;;;;;22.50;43.80;;;;;;5114425;27;19988;-55
2021/12/26 14:30:17;;;;;;;;;;;22.50;43.90;;;;;;5138121;27;19924;-56
2021/12/26 14:32:57;;;;;;;;;;;22.50;43.90;;;;;;5138032;27;19945;-55